Time;durP1;ratioP1;P1;durP2;ratioP2;P2;SDS_P1;SDS_P2;PMS_P1;PMS_P2;Temp;Humidity;BMP_temperature;BMP_pressure;BME280_temperature;BME280_humidity;BME280_pressure;Samples;Min_cycle;Max_cycle;Signal;HPM_P1;HPM_P2
2023/12/06 00:00:13;;;;;;;2.10;2.00;;;;;;;3.07;100.00;99375.00;5046016;28;20197;-57
2023/12/06 00:02:38;;;;;;;2.37;2.17;;;;;;;3.01;100.00;99377.78;5068854;28;20173;-58
2023/12/06 00:05:04;;;;;;;2.87;2.67;;;;;;;2.97;100.00;99378.78;5054330;28;20559;-58
2023/12/06 00:07:29;;;;;;;2.40;2.20;;;;;;;2.98;100.00;99371.09;5055176;28;20277;-58
2023/12/06 00:09:54;;;;;;;2.73;2.33;;;;;;;3.04;100.00;99372.59;5056130;28;20247;-58
2023/12/06 00:12:19;;;;;;;2.47;2.03;;;;;;;3.06;100.00;99375.88;5060340;28;20319;-58
2023/12/06 00:14:45;;;;;;;2.10;1.90;;;;;;;3.11;100.00;99376.56;5056044;28;20269;-58
2023/12/06 00:17:10;;;;;;;2.57;2.37;;;;;;;3.11;100.00;99368.94;5054599;28;20196;-58
2023/12/06 00:19:36;;;;;;;3.30;2.40;;;;;;;3.06;100.00;99374.19;5055957;28;20209;-58
2023/12/06 00:22:01;;;;;;;2.60;2.40;;;;;;;3.13;100.00;99374.78;5060132;28;20221;-58
2023/12/06 00:24:26;;;;;;;2.80;2.50;;;;;;;3.24;100.00;99382.03;5055336;28;20242;-58
2023/12/06 00:26:51;;;;;;;2.47;2.30;;;;;;;3.25;100.00;99380.31;5054512;28;20197;-57
2023/12/06 00:29:17;;;;;;;2.80;2.60;;;;;;;3.20;100.00;99381.31;5055369;28;20185;-58
2023/12/06 00:31:43;;;;;;;2.77;2.53;;;;;;;3.16;100.00;99379.78;5036877;28;20699;-57
2023/12/06 00:34:08;;;;;;;2.40;2.20;;;;;;;3.17;100.00;99381.41;5070586;28;20192;-59
2023/12/06 00:36:33;;;;;;;2.80;2.60;;;;;;;3.22;100.00;99386.34;5062843;28;20200;-57
2023/12/06 00:38:58;;;;;;;3.20;2.30;;;;;;;3.18;100.00;99387.34;5074231;28;20240;-57
2023/12/06 00:41:24;;;;;;;3.63;2.70;;;;;;;3.13;100.00;99384.16;5074716;28;20220;-57
2023/12/06 00:43:51;;;;;;;3.00;2.80;;;;;;;3.22;100.00;99386.34;5062541;28;20177;-58
2023/12/06 00:46:17;;;;;;;2.50;2.30;;;;;;;3.12;100.00;99385.03;5054480;28;20170;-58
2023/12/06 00:48:42;;;;;;;3.33;2.43;;;;;;;3.12;100.00;99383.28;5053546;28;20208;-57
2023/12/06 00:51:07;;;;;;;2.60;2.40;;;;;;;3.11;100.00;99390.97;5052973;28;20263;-57
2023/12/06 00:53:33;;;;;;;2.60;2.40;;;;;;;3.12;100.00;99390.91;5061277;28;20177;-58
2023/12/06 00:55:59;;;;;;;2.57;2.30;;;;;;;3.07;100.00;99388.53;5073593;28;20188;-59
2023/12/06 00:58:24;;;;;;;2.33;2.13;;;;;;;3.09;100.00;99396.13;5073409;28;20200;-58
2023/12/06 01:00:49;;;;;;;2.80;2.60;;;;;;;3.10;100.00;99402.88;5049442;28;20240;-58
2023/12/06 01:03:14;;;;;;;2.77;2.57;;;;;;;3.05;100.00;99400.47;5063652;28;20208;-57
2023/12/06 01:05:40;;;;;;;2.50;2.30;;;;;;;3.14;100.00;99406.09;5073067;28;20212;-58
2023/12/06 01:08:05;;;;;;;2.80;2.60;;;;;;;3.07;100.00;99408.88;5072970;28;20192;-58
2023/12/06 01:10:30;;;;;;;2.70;2.50;;;;;;;3.04;100.00;99406.44;5060633;28;20270;-58
2023/12/06 01:12:55;;;;;;;2.57;2.37;;;;;;;3.12;100.00;99405.34;5065711;28;20177;-58
2023/12/06 01:15:21;;;;;;;3.20;3.00;;;;;;;3.18;100.00;99412.75;5054175;28;20239;-58
2023/12/06 01:17:46;;;;;;;3.80;2.90;;;;;;;3.20;100.00;99416.06;5052405;28;20228;-58
2023/12/06 01:20:11;;;;;;;3.30;3.00;;;;;;;3.22;100.00;99414.31;5045557;28;20198;-58
2023/12/06 01:22:37;;;;;;;3.30;3.00;;;;;;;3.21;100.00;99420.25;5067611;28;20525;-58
2023/12/06 01:25:02;;;;;;;3.43;3.10;;;;;;;3.04;100.00;99424.22;5053796;28;20661;-58
2023/12/06 01:27:27;;;;;;;3.63;3.33;;;;;;;2.92;100.00;99423.84;5053868;28;20187;-58
2023/12/06 01:29:53;;;;;;;3.27;3.03;;;;;;;2.87;100.00;99423.97;5054636;28;20269;-57
2023/12/06 01:32:18;;;;;;;3.13;2.93;;;;;;;2.89;100.00;99423.03;5058789;28;20721;-57
2023/12/06 01:34:43;;;;;;;3.13;2.93;;;;;;;2.93;100.00;99422.91;5054228;28;20186;-57
2023/12/06 01:37:08;;;;;;;4.10;3.70;;;;;;;3.02;100.00;99425.97;5053308;28;20686;-56
2023/12/06 01:39:34;;;;;;;4.33;3.47;;;;;;;2.91;100.00;99430.59;5054517;28;20197;-57
2023/12/06 01:41:59;;;;;;;4.17;3.77;;;;;;;2.79;100.00;99434.41;5058018;28;20221;-57
2023/12/06 01:44:25;;;;;;;4.27;3.87;;;;;;;2.79;100.00;99433.56;5055140;28;20281;-59
2023/12/06 01:46:51;;;;;;;4.00;3.70;;;;;;;2.81;100.00;99436.88;5052483;28;20523;-57
2023/12/06 01:49:17;;;;;;;3.67;3.37;;;;;;;2.85;100.00;99438.44;5054287;28;20181;-58
2023/12/06 01:51:42;;;;;;;3.87;3.57;;;;;;;2.88;100.00;99439.16;5056127;28;20623;-57
2023/12/06 01:54:09;;;;;;;3.90;3.60;;;;;;;2.93;100.00;99444.09;5055715;28;20185;-58
2023/12/06 01:56:36;;;;;;;4.53;3.87;;;;;;;2.95;100.00;99446.56;5052779;28;20257;-58
2023/12/06 01:59:02;;;;;;;4.53;4.13;;;;;;;2.97;100.00;99445.66;5057491;28;20596;-57
2023/12/06 02:01:27;;;;;;;3.90;3.60;;;;;;;2.86;100.00;99440.91;5062209;28;20300;-57
2023/12/06 02:03:53;;;;;;;4.67;4.27;;;;;;;3.04;100.00;99444.56;5061375;28;20669;-57
2023/12/06 02:06:18;;;;;;;5.10;4.67;;;;;;;3.14;100.00;99446.78;5061421;28;20251;-58
2023/12/06 02:08:44;;;;;;;5.00;4.60;;;;;;;3.06;100.00;99441.97;5064114;28;20208;-57
2023/12/06 02:11:09;;;;;;;4.93;4.53;;;;;;;3.15;100.00;99445.91;5051478;28;20224;-57
2023/12/06 02:13:35;;;;;;;5.67;4.60;;;;;;;3.17;100.00;99439.88;5055569;28;20177;-57
2023/12/06 02:16:01;;;;;;;5.97;5.47;;;;;;;3.07;100.00;99448.69;5061319;28;20181;-56
2023/12/06 02:18:27;;;;;;;8.20;5.10;;;;;;;3.06;100.00;99442.81;5068858;28;20224;-56
2023/12/06 02:20:53;;;;;;;6.53;5.93;;;;;;;3.03;100.00;99437.81;5067780;28;20223;-57
2023/12/06 02:23:22;;;;;;;6.37;5.77;;;;;;;3.13;100.00;99443.41;5080624;28;20189;-56
2023/12/06 02:25:48;;;;;;;5.90;5.40;;;;;;;3.13;100.00;99445.13;5060263;28;20189;-56
2023/12/06 02:28:13;;;;;;;6.03;5.53;;;;;;;3.25;100.00;99439.63;5052120;28;20200;-56
2023/12/06 02:30:38;;;;;;;6.33;5.80;;;;;;;3.26;100.00;99446.34;5047111;28;20232;-56
2023/12/06 02:33:03;;;;;;;6.10;5.50;;;;;;;3.33;100.00;99442.72;5063397;28;20326;-56
2023/12/06 02:35:35;;;;;;;6.87;6.23;;;;;;;3.37;100.00;99449.38;5052726;28;20213;-56
2023/12/06 02:38:02;;;;;;;6.77;6.17;;;;;;;3.36;100.00;99447.69;5052077;28;20181;-57
2023/12/06 02:40:30;;;;;;;6.90;6.30;;;;;;;3.39;100.00;99439.94;5055037;28;20223;-56
2023/12/06 02:42:58;;;;;;;7.77;7.00;;;;;;;3.45;100.00;99440.63;5066091;28;20189;-56
2023/12/06 02:45:23;;;;;;;6.93;6.33;;;;;;;3.54;100.00;99442.84;5062737;28;20183;-56
2023/12/06 02:47:48;;;;;;;7.00;6.30;;;;;;;3.54;100.00;99443.66;5070668;28;20176;-55
2023/12/06 02:50:14;;;;;;;7.93;6.40;;;;;;;3.57;100.00;99447.81;5062749;28;20235;-56
2023/12/06 02:52:39;;;;;;;7.60;7.00;;;;;;;3.51;100.00;99453.97;5078690;28;20264;-56
2023/12/06 02:55:05;;;;;;;7.57;6.50;;;;;;;3.49;100.00;99444.72;5071157;28;20662;-56
2023/12/06 02:57:30;;;;;;;8.27;7.57;;;;;;;3.51;100.00;99456.50;5059686;28;20189;-56
2023/12/06 02:59:55;;;;;;;9.20;8.30;;;;;;;3.47;100.00;99454.94;5050383;28;20236;-57
2023/12/06 03:02:20;;;;;;;9.50;8.63;;;;;;;3.56;100.00;99448.72;5057241;28;20242;-57
2023/12/06 03:04:46;;;;;;;10.20;8.97;;;;;;;3.46;100.00;99460.06;5056080;28;20184;-57
2023/12/06 03:07:11;;;;;;;9.23;8.33;;;;;;;3.58;100.00;99459.63;5070994;28;20506;-56
2023/12/06 03:09:36;;;;;;;8.63;7.83;;;;;;;3.62;100.00;99458.66;5071214;28;20180;-56
2023/12/06 03:12:01;;;;;;;9.20;7.63;;;;;;;3.66;100.00;99465.28;5076219;28;20247;-56
2023/12/06 03:14:27;;;;;;;8.87;8.07;;;;;;;3.50;100.00;99456.56;5069782;28;20175;-56
2023/12/06 03:16:52;;;;;;;8.67;7.87;;;;;;;3.46;100.00;99463.47;5069802;28;20181;-57
2023/12/06 03:19:17;;;;;;;8.60;7.87;;;;;;;3.48;100.00;99453.22;5069102;28;20266;-56
2023/12/06 03:21:42;;;;;;;8.87;8.07;;;;;;;3.55;100.00;99454.69;5073290;28;20244;-56
2023/12/06 03:24:08;;;;;;;9.13;7.40;;;;;;;3.42;100.00;99461.91;5071846;28;20182;-56
2023/12/06 03:26:33;;;;;;;8.37;7.53;;;;;;;3.32;100.00;99460.56;5069472;28;20169;-57
2023/12/06 03:28:58;;;;;;;8.77;7.97;;;;;;;3.09;100.00;99456.25;5069129;28;20173;-57
2023/12/06 03:31:24;;;;;;;8.03;7.33;;;;;;;3.21;100.00;99458.38;5059814;28;20220;-56
2023/12/06 03:33:49;;;;;;;9.00;8.20;;;;;;;3.19;100.00;99463.53;5059999;28;20189;-56
2023/12/06 03:36:14;;;;;;;9.40;8.13;;;;;;;3.25;100.00;99461.66;5070395;28;20653;-57
2023/12/06 03:38:40;;;;;;;9.47;8.50;;;;;;;3.18;100.00;99461.06;5067051;28;20194;-57
2023/12/06 03:41:05;;;;;;;8.97;8.17;;;;;;;3.28;100.00;99469.19;5068067;28;20227;-56
2023/12/06 03:43:30;;;;;;;8.97;8.07;;;;;;;3.29;100.00;99469.13;5067261;28;20180;-57
2023/12/06 03:45:56;;;;;;;8.23;7.53;;;;;;;3.12;100.00;99473.97;5070351;28;20187;-57
2023/12/06 03:48:21;;;;;;;9.23;8.33;;;;;;;3.18;100.00;99468.69;5068059;28;20173;-57
2023/12/06 03:50:46;;;;;;;8.87;8.07;;;;;;;3.15;100.00;99484.88;5061587;28;20287;-57
2023/12/06 03:53:11;;;;;;;9.70;8.80;;;;;;;3.38;100.00;99476.44;5060856;28;20567;-57
2023/12/06 03:55:37;;;;;;;10.07;9.10;;;;;;;3.48;100.00;99476.94;5067170;28;20181;-57
2023/12/06 03:58:02;;;;;;;9.93;8.93;;;;;;;3.53;100.00;99480.13;5070415;28;20192;-57
2023/12/06 04:00:28;;;;;;;10.00;9.00;;;;;;;3.57;100.00;99475.78;5047593;28;20247;-56
2023/12/06 04:02:53;;;;;;;9.07;8.27;;;;;;;3.48;100.00;99481.22;5063078;28;20204;-55
2023/12/06 04:05:18;;;;;;;9.23;8.33;;;;;;;3.44;100.00;99472.03;5052425;28;20644;-56
2023/12/06 04:07:44;;;;;;;9.60;8.63;;;;;;;3.47;100.00;99482.09;5069062;28;20235;-57
2023/12/06 04:10:09;;;;;;;8.80;7.90;;;;;;;3.43;100.00;99480.53;5058976;28;20185;-57
2023/12/06 04:12:34;;;;;;;10.80;9.37;;;;;;;3.49;100.00;99477.78;5065204;28;20219;-57
2023/12/06 04:15:00;;;;;;;10.80;9.70;;;;;;;3.60;100.00;99480.78;5051173;28;20173;-56
2023/12/06 04:17:25;;;;;;;10.80;9.37;;;;;;;3.67;100.00;99482.22;5050826;28;20596;-56
2023/12/06 04:19:51;;;;;;;10.47;9.37;;;;;;;3.46;100.00;99486.34;5051162;28;20690;-56
2023/12/06 04:22:17;;;;;;;15.83;10.23;;;;;;;3.43;100.00;99480.53;5056212;28;20302;-57
2023/12/06 04:24:42;;;;;;;10.80;9.63;;;;;;;3.44;100.00;99498.28;5050790;28;20243;-56
2023/12/06 04:27:07;;;;;;;9.63;8.73;;;;;;;3.52;100.00;99495.47;5059505;28;20187;-57
2023/12/06 04:29:32;;;;;;;10.83;9.87;;;;;;;3.61;100.00;99504.47;5070554;28;20193;-57
2023/12/06 04:31:58;;;;;;;10.33;9.33;;;;;;;3.60;100.00;99500.28;5054567;27;20230;-56
2023/12/06 04:34:23;;;;;;;11.60;10.40;;;;;;;3.62;100.00;99501.91;5071042;28;20628;-56
2023/12/06 04:36:48;;;;;;;9.90;8.90;;;;;;;3.68;100.00;99503.38;5069684;28;20199;-56
2023/12/06 04:39:13;;;;;;;10.50;9.40;;;;;;;3.70;100.00;99502.44;5069237;28;20201;-57
2023/12/06 04:41:39;;;;;;;9.33;8.43;;;;;;;3.70;100.00;99501.63;5072068;28;20232;-56
2023/12/06 04:44:04;;;;;;;9.60;8.70;;;;;;;3.70;100.00;99499.91;5073040;28;20187;-56
2023/12/06 04:46:29;;;;;;;9.90;8.83;;;;;;;3.57;100.00;99503.75;5073021;28;20176;-57
2023/12/06 04:48:55;;;;;;;8.87;7.97;;;;;;;3.61;100.00;99507.88;5073166;28;20649;-56
2023/12/06 04:51:21;;;;;;;10.27;8.43;;;;;;;3.66;100.00;99510.22;5065630;28;20274;-56
2023/12/06 04:53:46;;;;;;;7.60;6.90;;;;;;;3.57;100.00;99508.03;5073763;28;20191;-56
2023/12/06 04:56:12;;;;;;;9.23;8.33;;;;;;;3.52;100.00;99509.03;5074066;28;20188;-57
2023/12/06 04:58:37;;;;;;;9.70;8.73;;;;;;;3.54;100.00;99516.59;5072859;28;20207;-56
2023/12/06 05:01:04;;;;;;;9.37;7.97;;;;;;;3.51;100.00;99516.69;5070895;28;20302;-57
2023/12/06 05:03:29;;;;;;;8.73;7.93;;;;;;;3.41;100.00;99526.34;5081150;28;20242;-56
2023/12/06 05:05:55;;;;;;;8.33;7.47;;;;;;;3.37;100.00;99528.19;5065161;28;20185;-56
2023/12/06 05:08:20;;;;;;;7.80;7.00;;;;;;;3.29;100.00;99525.06;5066619;28;20545;-57
2023/12/06 05:10:45;;;;;;;8.23;7.43;;;;;;;3.28;100.00;99527.66;5057405;28;20266;-56
2023/12/06 05:13:10;;;;;;;9.87;8.13;;;;;;;3.20;100.00;99528.75;5083073;28;20216;-57
2023/12/06 05:15:36;;;;;;;7.33;6.67;;;;;;;3.26;100.00;99534.50;5073183;28;20263;-57
2023/12/06 05:18:01;;;;;;;8.10;7.30;;;;;;;3.26;100.00;99537.84;5071875;28;20305;-58
2023/12/06 05:20:27;;;;;;;7.70;6.90;;;;;;;3.38;100.00;99542.53;5065794;28;20306;-57
2023/12/06 05:22:52;;;;;;;7.17;6.57;;;;;;;3.35;100.00;99542.66;5084562;28;20188;-56
2023/12/06 05:25:19;;;;;;;6.53;5.93;;;;;;;3.27;100.00;99546.34;5072264;28;20220;-57
2023/12/06 05:27:44;;;;;;;6.90;6.30;;;;;;;3.17;100.00;99548.34;5071822;28;20245;-57
2023/12/06 05:30:11;;;;;;;7.10;6.43;;;;;;;3.11;100.00;99556.97;5064054;28;20263;-57
2023/12/06 05:32:37;;;;;;;6.93;6.23;;;;;;;3.11;100.00;99551.91;5087362;28;20192;-57
2023/12/06 05:35:03;;;;;;;6.80;6.20;;;;;;;2.98;100.00;99553.19;5055893;28;20175;-58
2023/12/06 05:37:28;;;;;;;7.47;6.17;;;;;;;3.16;100.00;99562.78;5062973;28;20536;-56
2023/12/06 05:39:54;;;;;;;8.10;7.30;;;;;;;3.03;100.00;99562.31;5072461;28;20192;-56
2023/12/06 05:42:19;;;;;;;7.70;6.90;;;;;;;3.06;100.00;99564.78;5075369;28;20675;-57
2023/12/06 05:44:44;;;;;;;8.10;6.73;;;;;;;3.13;100.00;99560.31;5071446;28;20314;-57
2023/12/06 05:47:10;;;;;;;7.47;6.77;;;;;;;3.13;100.00;99567.13;5072118;28;20188;-57
2023/12/06 05:49:36;;;;;;;7.50;6.80;;;;;;;3.25;100.00;99569.28;5072641;28;20570;-58
2023/12/06 05:52:01;;;;;;;8.00;7.20;;;;;;;3.27;100.00;99570.03;5063761;28;20319;-58
2023/12/06 05:54:26;;;;;;;7.87;7.07;;;;;;;3.16;100.00;99577.19;5059608;28;20184;-57
2023/12/06 05:56:52;;;;;;;8.63;7.73;;;;;;;3.22;100.00;99575.28;5059238;28;20231;-57
2023/12/06 05:59:17;;;;;;;8.07;7.37;;;;;;;3.32;100.00;99573.25;5041198;28;20292;-56
2023/12/06 06:01:42;;;;;;;8.97;8.07;;;;;;;3.28;100.00;99571.69;5071702;28;20810;-57
2023/12/06 06:04:07;;;;;;;8.47;7.67;;;;;;;3.36;100.00;99579.91;5065267;28;20185;-56
2023/12/06 06:06:37;;;;;;;8.20;7.33;;;;;;;3.42;100.00;99583.94;5052617;28;20177;-56
2023/12/06 06:09:02;;;;;;;8.67;7.53;;;;;;;3.32;100.00;99580.88;5052774;28;20616;-57
2023/12/06 06:11:27;;;;;;;9.03;8.13;;;;;;;3.41;100.00;99586.53;5070780;28;20218;-57
2023/12/06 06:13:53;;;;;;;8.43;7.73;;;;;;;3.34;100.00;99594.38;5071026;28;20261;-57
2023/12/06 06:16:18;;;;;;;8.73;7.90;;;;;;;3.16;100.00;99593.28;5055671;28;20196;-59
2023/12/06 06:18:44;;;;;;;7.93;7.13;;;;;;;3.23;100.00;99596.44;5052019;28;20306;-57
2023/12/06 06:21:09;;;;;;;8.20;7.40;;;;;;;3.13;100.00;99602.72;5050805;28;20224;-57
2023/12/06 06:23:34;;;;;;;7.50;6.80;;;;;;;3.06;100.00;99604.59;5069681;28;20188;-58
2023/12/06 06:26:00;;;;;;;8.20;7.40;;;;;;;2.97;100.00;99612.50;5067379;28;20331;-57
2023/12/06 06:28:25;;;;;;;7.77;7.07;;;;;;;3.07;100.00;99608.78;5051956;28;20186;-59
2023/12/06 06:30:50;;;;;;;7.90;7.10;;;;;;;3.03;100.00;99613.16;5048717;28;20235;-57
2023/12/06 06:33:16;;;;;;;7.90;7.10;;;;;;;2.97;100.00;99618.41;5061619;28;20188;-56
2023/12/06 06:35:41;;;;;;;7.37;6.67;;;;;;;2.93;100.00;99619.41;5052769;28;20667;-57
2023/12/06 06:38:06;;;;;;;8.03;7.33;;;;;;;2.96;100.00;99626.09;5052242;28;20181;-57
2023/12/06 06:40:32;;;;;;;8.77;7.97;;;;;;;2.90;100.00;99625.41;5045613;28;20278;-57
2023/12/06 06:42:57;;;;;;;7.93;7.20;;;;;;;2.79;100.00;99631.69;5063721;28;20597;-58
2023/12/06 06:45:23;;;;;;;8.37;7.57;;;;;;;2.81;100.00;99633.28;5052391;28;20541;-56
2023/12/06 06:47:48;;;;;;;8.47;7.67;;;;;;;2.66;100.00;99634.56;5052045;28;20223;-56
2023/12/06 06:50:15;;;;;;;9.17;8.27;;;;;;;2.36;100.00;99642.19;5043828;28;20488;-57
2023/12/06 06:52:40;;;;;;;8.80;7.77;;;;;;;2.23;100.00;99645.94;5065156;28;20176;-57
2023/12/06 06:55:07;;;;;;;8.43;7.63;;;;;;;2.08;100.00;99644.66;5064061;28;20277;-57
2023/12/06 06:57:32;;;;;;;8.70;7.90;;;;;;;2.08;100.00;99645.50;5070641;28;20222;-58
2023/12/06 06:59:58;;;;;;;8.00;7.30;;;;;;;2.06;100.00;99657.41;5071536;28;20205;-58
2023/12/06 07:02:23;;;;;;;8.43;7.63;;;;;;;2.02;100.00;99658.34;5076572;28;20220;-58
2023/12/06 07:04:48;;;;;;;8.17;7.37;;;;;;;2.12;100.00;99656.38;5071085;28;20173;-58
2023/12/06 07:07:13;;;;;;;8.50;7.60;;;;;;;2.09;100.00;99672.53;5052129;28;20215;-58
2023/12/06 07:09:39;;;;;;;7.87;7.17;;;;;;;2.20;100.00;99666.34;5051544;28;20189;-58
2023/12/06 07:12:05;;;;;;;8.70;7.90;;;;;;;2.31;100.00;99674.50;5056694;28;20630;-57
2023/12/06 07:14:30;;;;;;;7.13;6.43;;;;;;;2.15;100.00;99675.78;5051624;28;20690;-57
2023/12/06 07:16:57;;;;;;;7.37;6.67;;;;;;;2.23;100.00;99684.88;5051287;28;20248;-57
2023/12/06 07:19:23;;;;;;;7.67;6.87;;;;;;;2.11;100.00;99685.19;5051682;28;20284;-57
2023/12/06 07:21:48;;;;;;;7.67;6.77;;;;;;;2.08;100.00;99685.25;5055319;28;20319;-58
2023/12/06 07:24:13;;;;;;;6.47;5.67;;;;;;;2.13;100.00;99687.69;5053562;28;20184;-57
2023/12/06 07:26:39;;;;;;;7.37;6.77;;;;;;;2.14;100.00;99699.50;5052219;28;20185;-57
2023/12/06 07:29:08;;;;;;;8.43;7.33;;;;;;;2.36;100.00;99702.31;5052198;28;20191;-57
2023/12/06 07:31:33;;;;;;;8.00;7.20;;;;;;;2.44;100.00;99697.84;5054520;28;20714;-56
2023/12/06 07:33:58;;;;;;;7.00;6.40;;;;;;;2.46;100.00;99700.34;5054504;28;20272;-57
2023/12/06 07:36:23;;;;;;;7.77;6.90;;;;;;;2.38;100.00;99703.06;5052065;28;20200;-57
2023/12/06 07:38:49;;;;;;;8.00;7.23;;;;;;;2.50;100.00;99702.75;5051106;28;20227;-58
2023/12/06 07:41:14;;;;;;;8.80;7.90;;;;;;;2.50;100.00;99712.06;5050614;28;20695;-57
2023/12/06 07:43:40;;;;;;;7.67;6.97;;;;;;;2.52;100.00;99723.03;5058191;28;20189;-57
2023/12/06 07:46:05;;;;;;;7.80;7.10;;;;;;;2.51;100.00;99713.75;5052616;28;20205;-57
2023/12/06 07:48:30;;;;;;;7.27;6.67;;;;;;;2.61;100.00;99722.75;5051460;28;20177;-56
2023/12/06 07:50:57;;;;;;;8.23;7.37;;;;;;;2.71;100.00;99725.88;5048538;28;20294;-57
2023/12/06 07:53:23;;;;;;;6.87;6.20;;;;;;;2.70;100.00;99727.56;5059503;28;20180;-57
2023/12/06 07:55:48;;;;;;;7.70;6.93;;;;;;;2.78;100.00;99739.22;5069793;28;20176;-57
2023/12/06 07:58:15;;;;;;;7.47;6.77;;;;;;;2.69;100.00;99742.88;5070553;28;20208;-57
2023/12/06 08:00:40;;;;;;;7.60;6.90;;;;;;;2.67;100.00;99739.56;5064806;28;20628;-56
2023/12/06 08:03:06;;;;;;;6.63;6.00;;;;;;;2.64;100.00;99740.47;5070286;28;20209;-57
2023/12/06 08:05:31;;;;;;;7.47;6.77;;;;;;;2.56;100.00;99743.19;5068861;28;20231;-56
2023/12/06 08:07:56;;;;;;;8.27;7.47;;;;;;;2.70;100.00;99755.50;5070336;28;20192;-58
2023/12/06 08:10:26;;;;;;;8.27;7.47;;;;;;;2.70;100.00;99749.63;5062158;28;20215;-57
2023/12/06 08:12:54;;;;;;;7.83;7.03;;;;;;;2.60;100.00;99760.91;5083799;28;20261;-57
2023/12/06 08:15:20;;;;;;;7.87;7.07;;;;;;;2.55;100.00;99756.75;5051971;28;20178;-57
2023/12/06 08:17:45;;;;;;;9.73;8.07;;;;;;;2.58;100.00;99763.50;5052246;28;20673;-57
2023/12/06 08:20:11;;;;;;;8.80;7.90;;;;;;;2.64;100.00;99762.47;5045909;28;20204;-57
2023/12/06 08:22:36;;;;;;;8.73;7.93;;;;;;;2.61;100.00;99771.00;5068943;28;20177;-57
2023/12/06 08:25:02;;;;;;;9.43;8.43;;;;;;;2.58;100.00;99766.84;5055631;28;20231;-58
2023/12/06 08:27:29;;;;;;;9.40;8.40;;;;;;;2.63;100.00;99766.75;5054874;28;20190;-58
2023/12/06 08:29:55;;;;;;;9.67;8.70;;;;;;;2.66;100.00;99770.91;5055846;28;20166;-57
2023/12/06 08:32:21;;;;;;;9.57;8.67;;;;;;;2.57;100.00;99766.91;5037323;28;20326;-58
2023/12/06 08:34:46;;;;;;;10.53;9.07;;;;;;;2.54;100.00;99772.91;5066074;28;20714;-57
2023/12/06 08:37:11;;;;;;;9.63;8.63;;;;;;;2.61;100.00;99775.28;5071506;28;20290;-58
2023/12/06 08:39:37;;;;;;;10.27;9.20;;;;;;;2.74;100.00;99781.66;5074125;28;20219;-57
2023/12/06 08:42:02;;;;;;;11.27;9.20;;;;;;;2.68;100.00;99774.22;5077632;28;20233;-57
2023/12/06 08:44:28;;;;;;;9.40;8.50;;;;;;;2.71;100.00;99776.69;5063006;28;20238;-57
2023/12/06 08:46:53;;;;;;;9.60;8.70;;;;;;;3.00;100.00;99773.34;5070940;28;20181;-57
2023/12/06 08:49:19;;;;;;;10.13;9.13;;;;;;;3.08;100.00;99768.03;5054599;28;20174;-57
2023/12/06 08:51:44;;;;;;;9.73;8.73;;;;;;;2.94;100.00;99773.50;5056897;28;20233;-57
2023/12/06 08:54:09;;;;;;;9.27;8.37;;;;;;;2.85;100.00;99782.22;5060869;28;20272;-57
2023/12/06 08:56:34;;;;;;;10.03;9.13;;;;;;;2.97;100.00;99778.50;5073503;28;20189;-57
2023/12/06 08:59:00;;;;;;;9.47;8.57;;;;;;;2.96;100.00;99776.00;5073077;28;20203;-57
2023/12/06 09:01:25;;;;;;;10.77;9.10;;;;;;;3.10;100.00;99789.16;5074126;28;20230;-56
2023/12/06 09:03:50;;;;;;;10.73;8.83;;;;;;;3.23;100.00;99800.59;5078524;28;20948;-58
2023/12/06 09:06:15;;;;;;;10.77;9.67;;;;;;;3.38;100.00;99793.41;5073669;28;20201;-56
2023/12/06 09:08:41;;;;;;;10.70;9.70;;;;;;;3.27;100.00;99796.28;5058045;28;20213;-57
2023/12/06 09:11:07;;;;;;;10.03;9.00;;;;;;;3.16;100.00;99799.16;5051949;28;20263;-57
2023/12/06 09:13:32;;;;;;;11.30;10.23;;;;;;;3.14;100.00;99800.91;5061059;28;20185;-57
2023/12/06 09:15:58;;;;;;;10.60;9.60;;;;;;;3.34;100.00;99807.94;5052919;28;20177;-58
2023/12/06 09:18:23;;;;;;;10.57;9.57;;;;;;;3.30;100.00;99808.06;5055014;28;20223;-58
2023/12/06 09:20:48;;;;;;;10.23;9.23;;;;;;;3.23;100.00;99812.50;5061222;28;20702;-58
2023/12/06 09:23:14;;;;;;;10.40;9.23;;;;;;;3.11;100.00;99808.59;5063233;28;20208;-57
2023/12/06 09:25:39;;;;;;;10.63;9.53;;;;;;;3.10;100.00;99801.88;5071862;28;20215;-58
2023/12/06 09:28:06;;;;;;;9.50;8.60;;;;;;;3.07;100.00;99818.00;5071964;28;20263;-57
2023/12/06 09:30:31;;;;;;;9.87;8.87;;;;;;;3.15;100.00;99811.88;5066448;28;20234;-58
2023/12/06 09:32:56;;;;;;;10.80;9.70;;;;;;;3.09;100.00;99823.06;5084653;28;20628;-57
2023/12/06 09:35:22;;;;;;;11.87;9.80;;;;;;;3.21;100.00;99817.63;5072886;28;20290;-58
2023/12/06 09:37:48;;;;;;;10.73;9.63;;;;;;;3.34;100.00;99824.91;5072358;28;20184;-57
2023/12/06 09:40:13;;;;;;;10.90;9.67;;;;;;;3.43;100.00;99822.09;5064380;28;20208;-57
2023/12/06 09:42:43;;;;;;;12.23;11.03;;;;;;;3.60;100.00;99829.22;5084672;28;20670;-57
2023/12/06 09:45:09;;;;;;;11.77;9.87;;;;;;;3.68;100.00;99834.06;5072686;28;20192;-58
2023/12/06 09:47:35;;;;;;;10.17;9.10;;;;;;;3.65;100.00;99827.38;5071370;28;20169;-57
2023/12/06 09:50:00;;;;;;;10.30;9.20;;;;;;;3.62;100.00;99832.56;5072238;28;20226;-58
2023/12/06 09:52:26;;;;;;;9.70;8.80;;;;;;;3.75;100.00;99829.66;5064159;28;20257;-58
2023/12/06 09:54:51;;;;;;;9.70;8.80;;;;;;;3.74;100.00;99831.34;5073003;28;20549;-57
2023/12/06 09:57:17;;;;;;;8.53;7.73;;;;;;;3.58;100.00;99832.69;5072006;28;20233;-58
2023/12/06 09:59:42;;;;;;;9.50;8.60;;;;;;;3.55;100.00;99836.97;5072893;28;20195;-58
2023/12/06 10:02:07;;;;;;;9.70;8.70;;;;;;;3.59;100.00;99845.34;5076803;28;20578;-57
2023/12/06 10:04:34;;;;;;;8.73;7.93;;;;;;;3.69;100.00;99846.72;5071754;28;20270;-57
2023/12/06 10:07:00;;;;;;;9.10;8.20;;;;;;;3.57;100.00;99852.19;5070888;28;20191;-57
2023/12/06 10:09:25;;;;;;;8.93;8.10;;;;;;;3.71;100.00;99859.44;5071842;28;20611;-58
2023/12/06 10:11:50;;;;;;;8.67;7.87;;;;;;;3.59;100.00;99867.44;5074677;28;20733;-57
2023/12/06 10:14:20;;;;;;;10.30;9.23;;;;;;;3.52;100.00;99875.22;5073275;28;20185;-57
2023/12/06 10:16:47;;;;;;;8.63;7.73;;;;;;;3.43;100.00;99875.47;5069976;28;20223;-57
2023/12/06 10:19:21;;;;;;;8.20;7.43;;;;;;;3.47;100.00;99873.69;5071444;28;20517;-57
2023/12/06 10:21:50;;;;;;;8.97;8.13;;;;;;;3.49;100.00;99875.31;5073025;28;20247;-58
2023/12/06 10:24:16;;;;;;;9.83;8.87;;;;;;;3.71;100.00;99874.69;5072366;28;20182;-58
2023/12/06 10:26:41;;;;;;;8.00;7.30;;;;;;;3.52;100.00;99870.16;5067869;28;20176;-57
2023/12/06 10:29:07;;;;;;;7.90;7.20;;;;;;;3.58;100.00;99869.13;5070303;28;20186;-58
2023/12/06 10:31:42;;;;;;;7.47;6.77;;;;;;;3.53;100.00;99874.34;5070100;28;20313;-57
2023/12/06 10:34:08;;;;;;;7.17;6.47;;;;;;;3.51;100.00;99880.34;5071083;28;20229;-57
2023/12/06 10:36:40;;;;;;;7.87;7.07;;;;;;;3.54;100.00;99882.81;5069282;28;20202;-57
2023/12/06 10:39:10;;;;;;;7.57;6.83;;;;;;;3.59;100.00;99888.59;5067638;28;20210;-57
2023/12/06 10:41:39;;;;;;;7.47;6.77;;;;;;;3.72;100.00;99878.88;5071806;28;20227;-57
2023/12/06 10:44:07;;;;;;;6.93;6.33;;;;;;;3.64;100.00;99876.56;5069767;28;20234;-57
2023/12/06 10:46:34;;;;;;;7.70;7.00;;;;;;;3.55;100.00;99877.69;5069550;28;20503;-58
2023/12/06 10:49:01;;;;;;;7.40;6.80;;;;;;;3.70;100.00;99873.84;5068229;28;20524;-58
2023/12/06 10:51:29;;;;;;;7.73;7.03;;;;;;;3.60;100.00;99881.78;5061860;28;20717;-57
2023/12/06 10:53:54;;;;;;;8.23;7.53;;;;;;;3.65;100.00;99879.97;5071465;28;20198;-56
2023/12/06 10:56:21;;;;;;;8.00;7.23;;;;;;;3.72;100.00;99881.41;5071396;28;20171;-56
2023/12/06 10:58:48;;;;;;;8.67;7.27;;;;;;;3.54;100.00;99873.47;5070584;28;20313;-58
2023/12/06 11:01:15;;;;;;;7.20;6.50;;;;;;;3.67;100.00;99881.59;5070389;28;20603;-57
2023/12/06 11:03:40;;;;;;;9.27;8.37;;;;;;;3.80;100.00;99879.50;5076815;28;20207;-56
2023/12/06 11:06:21;;;;;;;8.00;7.17;;;;;;;3.84;100.00;99878.50;5071292;28;20276;-56
2023/12/06 11:09:25;;;;;;;8.50;7.67;;;;;;;3.84;100.00;99885.31;5070128;28;20176;-56
2023/12/06 11:12:22;;;;;;;7.33;6.73;;;;;;;3.87;100.00;99882.72;5074122;28;20234;-57
2023/12/06 11:15:12;;;;;;;8.37;7.07;;;;;;;3.87;100.00;99886.06;5068945;28;20180;-58
2023/12/06 11:17:56;;;;;;;11.60;7.60;;;;;;;3.86;100.00;99883.56;5069715;28;20235;-57
2023/12/06 11:20:21;;;;;;;8.33;7.53;;;;;;;3.96;100.00;99886.69;5062322;28;20208;-57
2023/12/06 11:22:48;;;;;;;8.13;7.37;;;;;;;3.96;100.00;99890.03;5082656;28;20534;-59
2023/12/06 11:25:13;;;;;;;7.97;7.23;;;;;;;3.95;100.00;99888.38;5070956;28;20224;-56